createdAt,value
2023-05-13T00:00:32.788Z,10.95
2023-05-13T00:03:10.910Z,10.84
2023-05-13T00:05:38.645Z,10.81
2023-05-13T00:08:09.742Z,10.75
2023-05-13T00:10:37.654Z,10.71
2023-05-13T00:13:05.370Z,10.67
2023-05-13T00:15:33.008Z,10.61
2023-05-13T00:18:00.732Z,10.53
2023-05-13T00:20:28.443Z,10.46
2023-05-13T00:22:56.172Z,10.35
2023-05-13T00:25:24.344Z,10.24
2023-05-13T00:27:52.269Z,10.15
2023-05-13T00:30:21.197Z,10.11
2023-05-13T00:32:49.134Z,10.07
2023-05-13T00:35:16.887Z,10.04
2023-05-13T00:37:45.162Z,9.96
2023-05-13T00:40:23.955Z,9.92
2023-05-13T00:42:52.357Z,9.90
2023-05-13T00:45:19.966Z,9.87
2023-05-13T00:47:49.625Z,9.80
2023-05-13T00:50:17.499Z,9.75
2023-05-13T00:52:46.300Z,9.72
2023-05-13T00:55:14.078Z,9.65
2023-05-13T00:57:41.931Z,9.61
2023-05-13T01:00:10.660Z,9.57
2023-05-13T01:03:12.831Z,9.51
2023-05-13T01:06:09.937Z,9.41
2023-05-13T01:08:46.699Z,9.33
2023-05-13T01:11:25.716Z,9.32
2023-05-13T01:14:02.812Z,9.32
2023-05-13T01:16:55.870Z,9.32
2023-05-13T01:19:43.233Z,9.32
2023-05-13T01:22:11.000Z,9.32
2023-05-13T01:24:38.846Z,9.27
2023-05-13T01:27:07.321Z,9.20
2023-05-13T01:29:35.698Z,9.14
2023-05-13T01:32:04.243Z,9.07
2023-05-13T01:34:33.710Z,9.00
2023-05-13T01:37:01.642Z,8.92
2023-05-13T01:39:31.873Z,8.84
2023-05-13T01:41:59.521Z,8.79
2023-05-13T01:44:27.147Z,8.70
2023-05-13T01:46:55.421Z,8.64
2023-05-13T01:49:23.378Z,8.58
2023-05-13T01:51:52.167Z,8.52
2023-05-13T01:54:19.815Z,8.43
2023-05-13T01:56:47.699Z,8.35
2023-05-13T01:59:15.462Z,8.29
2023-05-13T02:01:43.136Z,8.22
2023-05-13T02:04:11.445Z,8.17
2023-05-13T02:06:39.173Z,8.13
2023-05-13T02:09:06.801Z,8.07
2023-05-13T02:11:35.777Z,8.03
2023-05-13T02:14:03.710Z,8.04
2023-05-13T02:16:31.626Z,8.05
2023-05-13T02:18:59.434Z,8.07
2023-05-13T02:21:27.134Z,8.09
2023-05-13T02:23:54.815Z,8.13
2023-05-13T02:26:22.478Z,8.18
2023-05-13T02:28:50.501Z,8.22
2023-05-13T02:31:18.143Z,8.26
2023-05-13T02:33:45.880Z,8.30
2023-05-13T02:36:13.623Z,8.34
2023-05-13T02:38:41.387Z,8.39
2023-05-13T02:41:11.468Z,8.39
2023-05-13T02:43:39.236Z,8.39
2023-05-13T02:46:06.969Z,8.41
2023-05-13T02:48:34.826Z,8.40
2023-05-13T02:51:02.507Z,8.40
2023-05-13T02:53:30.953Z,8.42
2023-05-13T02:55:59.343Z,8.50
2023-05-13T02:58:26.985Z,8.58
2023-05-13T03:00:54.685Z,8.65
2023-05-13T03:03:22.542Z,8.69
2023-05-13T03:05:50.413Z,8.73
2023-05-13T03:08:18.147Z,8.74
2023-05-13T03:10:45.802Z,8.78
2023-05-13T03:13:13.493Z,8.83
2023-05-13T03:15:43.455Z,8.90
2023-05-13T03:18:12.037Z,8.98
2023-05-13T03:20:40.066Z,9.07
2023-05-13T03:23:08.155Z,9.23
2023-05-13T03:25:35.780Z,9.33
2023-05-13T03:28:03.986Z,9.38
2023-05-13T03:30:31.708Z,9.36
2023-05-13T03:33:00.652Z,9.29
2023-05-13T03:35:28.378Z,9.24
2023-05-13T03:37:55.999Z,9.25
2023-05-13T03:40:23.784Z,9.25
2023-05-13T03:42:51.697Z,9.28
2023-05-13T03:45:19.519Z,9.25
2023-05-13T03:47:47.386Z,9.21
2023-05-13T03:50:15.134Z,9.21
2023-05-13T03:52:43.981Z,9.18
2023-05-13T03:55:15.025Z,9.14
2023-05-13T03:57:47.585Z,9.06
2023-05-13T04:00:15.952Z,9.01
2023-05-13T04:02:44.482Z,9.01
2023-05-13T04:05:13.813Z,9.03
2023-05-13T04:07:41.884Z,9.05
2023-05-13T04:10:12.333Z,9.05
2023-05-13T04:12:41.452Z,9.06
2023-05-13T04:15:09.395Z,9.07
2023-05-13T04:17:37.166Z,9.11
2023-05-13T04:20:07.515Z,9.12
2023-05-13T04:22:35.868Z,9.16
2023-05-13T04:25:03.641Z,9.18
2023-05-13T04:27:33.411Z,9.24
2023-05-13T04:30:01.286Z,9.36
2023-05-13T04:32:32.105Z,9.52
2023-05-13T04:34:59.765Z,9.70
2023-05-13T04:37:27.491Z,9.89
2023-05-13T04:39:55.202Z,10.06
2023-05-13T04:42:22.881Z,10.27
2023-05-13T04:44:50.506Z,10.50
2023-05-13T04:47:18.874Z,10.76
2023-05-13T04:49:46.767Z,11.01
2023-05-13T04:52:15.036Z,11.26
2023-05-13T04:54:42.737Z,11.49
2023-05-13T04:57:10.406Z,11.67
2023-05-13T04:59:38.660Z,11.99
2023-05-13T05:02:06.360Z,12.33
2023-05-13T05:04:34.121Z,12.65
2023-05-13T05:07:01.828Z,12.92
2023-05-13T05:09:30.253Z,13.18
2023-05-13T05:11:57.912Z,13.48
2023-05-13T05:14:25.580Z,13.74
2023-05-13T05:16:53.281Z,13.96
2023-05-13T05:19:24.292Z,14.17
2023-05-13T05:21:52.619Z,14.36
2023-05-13T05:24:20.434Z,14.51
2023-05-13T05:26:48.112Z,14.65
2023-05-13T05:29:16.413Z,14.84
2023-05-13T05:31:44.480Z,15.04
2023-05-13T05:34:12.410Z,15.20
2023-05-13T05:36:40.041Z,15.30
2023-05-13T05:39:07.980Z,15.31
2023-05-13T05:41:35.763Z,15.19
2023-05-13T05:44:09.899Z,15.09
2023-05-13T05:46:37.589Z,15.37
2023-05-13T05:49:05.286Z,16.20
2023-05-13T05:51:32.903Z,17.34
2023-05-13T05:54:00.479Z,18.31
2023-05-13T05:56:28.110Z,19.31
2023-05-13T05:58:55.785Z,20.22
2023-05-13T06:01:23.412Z,20.86
2023-05-13T06:03:53.972Z,21.29
2023-05-13T06:06:22.681Z,21.74
2023-05-13T06:08:50.393Z,22.21
2023-05-13T06:11:18.177Z,22.47
2023-05-13T06:13:46.006Z,22.52
2023-05-13T06:16:13.743Z,22.66
2023-05-13T06:18:41.470Z,22.86
2023-05-13T06:21:09.346Z,23.04
2023-05-13T06:23:37.792Z,23.46
2023-05-13T06:26:05.541Z,23.80
2023-05-13T06:28:33.347Z,24.06
2023-05-13T06:31:00.973Z,24.14
2023-05-13T06:33:28.844Z,24.11
2023-05-13T06:35:56.644Z,24.19
2023-05-13T06:38:24.346Z,24.39
2023-05-13T06:40:52.081Z,24.55
2023-05-13T06:43:19.776Z,24.68
2023-05-13T06:45:48.841Z,24.67
2023-05-13T06:48:16.661Z,24.80
2023-05-13T06:50:44.410Z,25.24
2023-05-13T06:53:12.622Z,25.23
2023-05-13T06:55:42.651Z,25.41
2023-05-13T06:58:10.692Z,25.44
2023-05-13T07:00:40.524Z,25.16
2023-05-13T07:03:08.695Z,24.59
2023-05-13T07:05:36.568Z,24.55
2023-05-13T07:08:08.496Z,24.68
2023-05-13T07:10:37.063Z,25.03
2023-05-13T07:13:05.010Z,25.42
2023-05-13T07:15:32.774Z,25.82
2023-05-13T07:18:00.500Z,26.03
2023-05-13T07:20:28.221Z,26.38
2023-05-13T07:22:56.373Z,26.60
2023-05-13T07:25:24.968Z,26.43
2023-05-13T07:27:52.613Z,26.59
2023-05-13T07:30:20.566Z,26.84
2023-05-13T07:32:48.519Z,27.03
2023-05-13T07:35:17.225Z,26.76
2023-05-13T07:37:45.196Z,26.43
2023-05-13T07:40:13.997Z,26.43
2023-05-13T07:42:42.240Z,26.79
2023-05-13T07:45:10.498Z,27.29
2023-05-13T07:47:38.364Z,27.12
2023-05-13T07:50:07.579Z,26.82
2023-05-13T07:52:35.537Z,26.68
2023-05-13T07:55:03.249Z,26.72
2023-05-13T07:57:30.897Z,27.08
2023-05-13T07:59:58.591Z,27.29
2023-05-13T08:02:27.066Z,27.51
2023-05-13T08:04:55.113Z,27.71
2023-05-13T08:07:22.793Z,27.27
2023-05-13T08:09:50.487Z,27.05
2023-05-13T08:12:18.200Z,26.93
2023-05-13T08:14:47.571Z,26.76
2023-05-13T08:17:18.280Z,26.72
2023-05-13T08:19:46.356Z,26.41
2023-05-13T08:22:14.020Z,26.59
2023-05-13T08:24:43.181Z,26.93
2023-05-13T08:27:10.895Z,26.94
2023-05-13T08:29:38.694Z,26.88
2023-05-13T08:32:07.093Z,26.81
2023-05-13T08:34:34.807Z,26.50
2023-05-13T08:37:02.537Z,26.43
2023-05-13T08:39:30.194Z,26.39
2023-05-13T08:41:58.509Z,26.04
2023-05-13T08:44:29.462Z,25.98
2023-05-13T08:47:34.227Z,25.88
2023-05-13T08:50:03.293Z,25.12
2023-05-13T08:52:34.332Z,24.87
2023-05-13T08:55:08.751Z,24.73
2023-05-13T08:57:36.421Z,25.16
2023-05-13T09:00:07.640Z,25.89
2023-05-13T09:02:35.476Z,26.39
2023-05-13T09:05:08.977Z,26.53
2023-05-13T09:07:38.426Z,25.80
2023-05-13T09:10:08.222Z,24.85
2023-05-13T09:12:50.377Z,24.69
2023-05-13T09:15:20.443Z,25.30
2023-05-13T09:17:54.415Z,26.14
2023-05-13T09:20:22.963Z,27.49
2023-05-13T09:22:53.132Z,28.67
2023-05-13T09:25:24.350Z,29.27
2023-05-13T09:27:57.521Z,29.74
2023-05-13T09:30:31.016Z,29.60
2023-05-13T09:33:19.961Z,29.25
2023-05-13T09:35:53.647Z,28.83
2023-05-13T09:38:22.336Z,27.72
2023-05-13T09:40:57.918Z,27.57
2023-05-13T09:43:31.494Z,28.61
2023-05-13T09:46:04.364Z,29.47
2023-05-13T09:48:33.988Z,29.30
2023-05-13T09:51:24.043Z,29.75
2023-05-13T09:54:18.999Z,29.25
2023-05-13T09:56:46.830Z,27.80
2023-05-13T09:59:16.381Z,27.05
2023-05-13T10:01:45.452Z,26.17
2023-05-13T10:04:14.132Z,25.75
2023-05-13T10:06:41.869Z,26.04
2023-05-13T10:09:13.459Z,26.01
2023-05-13T10:11:47.570Z,25.53
2023-05-13T10:14:17.151Z,24.76
2023-05-13T10:16:45.512Z,24.40
2023-05-13T10:19:13.940Z,24.36
2023-05-13T10:21:42.220Z,24.84
2023-05-13T10:24:10.013Z,25.27
2023-05-13T10:26:38.192Z,24.92
2023-05-13T10:29:06.758Z,24.79
2023-05-13T10:31:35.163Z,25.25
2023-05-13T10:34:04.092Z,25.52
2023-05-13T10:36:50.556Z,26.05
2023-05-13T10:39:36.425Z,27.56
2023-05-13T10:42:55.723Z,28.55
2023-05-13T10:45:27.312Z,29.57
2023-05-13T10:47:56.303Z,30.77
2023-05-13T10:50:25.336Z,31.46
2023-05-13T10:52:58.202Z,30.60
2023-05-13T10:55:27.957Z,29.26
2023-05-13T10:58:09.786Z,27.76
2023-05-13T11:00:39.045Z,26.69
2023-05-13T11:03:15.210Z,25.80
2023-05-13T11:06:20.339Z,25.11
2023-05-13T11:08:55.060Z,24.34
2023-05-13T11:11:29.133Z,23.81
2023-05-13T11:13:59.837Z,23.58
2023-05-13T11:16:27.607Z,23.49
2023-05-13T11:18:55.467Z,23.56
2023-05-13T11:21:35.554Z,24.21
2023-05-13T11:24:05.559Z,25.55
2023-05-13T11:26:59.214Z,27.15
2023-05-13T11:29:35.791Z,28.41
2023-05-13T11:32:05.937Z,28.68
2023-05-13T11:34:34.447Z,28.07
2023-05-13T11:37:05.122Z,26.85
2023-05-13T11:39:33.285Z,26.12
2023-05-13T11:42:05.200Z,25.54
2023-05-13T11:44:34.374Z,25.17
2023-05-13T11:47:05.920Z,25.00
2023-05-13T11:49:40.140Z,24.88
2023-05-13T11:52:15.606Z,24.52
2023-05-13T11:54:50.738Z,24.33
2023-05-13T11:57:20.267Z,24.64
2023-05-13T11:59:57.585Z,25.51
2023-05-13T12:02:30.699Z,26.54
2023-05-13T12:11:40.621Z,28.48
2023-05-13T12:14:09.240Z,27.82
2023-05-13T12:16:37.250Z,27.09
2023-05-13T12:19:07.273Z,27.56
2023-05-13T12:21:35.137Z,27.55
2023-05-13T12:24:16.229Z,27.12
2023-05-13T12:26:44.028Z,26.44
2023-05-13T12:29:12.201Z,25.98
2023-05-13T12:31:42.699Z,26.69
2023-05-13T12:34:10.789Z,27.23
2023-05-13T12:36:39.264Z,27.78
2023-05-13T12:39:09.218Z,28.17
2023-05-13T12:41:39.045Z,28.79
2023-05-13T12:44:14.168Z,29.27
2023-05-13T12:46:55.284Z,29.08
2023-05-13T12:49:23.070Z,28.85
2023-05-13T12:51:51.799Z,28.07
2023-05-13T12:54:19.629Z,27.06
2023-05-13T12:56:48.569Z,26.60
2023-05-13T12:59:16.923Z,26.24
2023-05-13T13:01:44.793Z,25.95
2023-05-13T13:04:12.580Z,26.33
2023-05-13T13:06:40.512Z,27.48
2023-05-13T13:09:08.212Z,28.78
2023-05-13T13:11:36.084Z,29.55
2023-05-13T13:14:03.754Z,29.70
2023-05-13T13:16:31.875Z,29.35
2023-05-13T13:19:01.695Z,29.33
2023-05-13T13:21:29.793Z,28.78
2023-05-13T13:23:57.486Z,27.95
2023-05-13T13:26:25.108Z,27.22
2023-05-13T13:28:52.748Z,26.70
2023-05-13T13:31:20.786Z,26.55
2023-05-13T13:33:48.859Z,26.31
2023-05-13T13:36:17.131Z,26.05
2023-05-13T13:38:45.378Z,26.62
2023-05-13T13:41:13.071Z,27.05
2023-05-13T13:43:40.790Z,27.48
2023-05-13T13:46:11.141Z,28.03
2023-05-13T13:48:38.863Z,28.69
2023-05-13T13:51:06.564Z,29.47
2023-05-13T13:53:34.126Z,29.40
2023-05-13T13:56:02.549Z,28.21
2023-05-13T13:58:30.188Z,26.83
2023-05-13T14:00:58.003Z,26.18
2023-05-13T14:03:28.948Z,25.65
2023-05-13T14:05:56.734Z,24.77
2023-05-13T14:08:24.816Z,23.99
2023-05-13T14:10:53.770Z,23.46
2023-05-13T14:13:21.998Z,23.21
2023-05-13T14:15:50.110Z,23.11
2023-05-13T14:18:18.278Z,22.87
2023-05-13T14:20:47.984Z,22.93
2023-05-13T14:23:16.649Z,23.07
2023-05-13T14:25:44.863Z,23.18
2023-05-13T14:28:13.507Z,23.15
2023-05-13T14:30:41.529Z,23.09
2023-05-13T14:33:10.102Z,23.25
2023-05-13T14:35:38.526Z,24.49
2023-05-13T14:38:06.601Z,26.27
2023-05-13T14:40:34.849Z,27.92
2023-05-13T14:43:04.968Z,29.32
2023-05-13T14:45:33.277Z,30.65
2023-05-13T14:48:01.582Z,31.81
2023-05-13T14:50:29.375Z,32.63
2023-05-13T14:52:57.078Z,33.33
2023-05-13T14:55:24.755Z,34.07
2023-05-13T14:57:53.957Z,34.72
2023-05-13T15:00:21.820Z,35.23
2023-05-13T15:02:49.748Z,35.64
2023-05-13T15:05:17.621Z,36.21
2023-05-13T15:07:45.384Z,36.40
2023-05-13T15:10:12.988Z,34.91
2023-05-13T15:12:40.682Z,31.79
2023-05-13T15:15:09.016Z,28.68
2023-05-13T15:17:36.686Z,26.30
2023-05-13T15:20:04.853Z,25.25
2023-05-13T15:22:34.060Z,24.28
2023-05-13T15:25:02.099Z,22.93
2023-05-13T15:27:29.824Z,21.95
2023-05-13T15:29:57.910Z,21.40
2023-05-13T15:32:25.600Z,21.01
2023-05-13T15:34:53.302Z,20.70
2023-05-13T15:37:21.621Z,20.34
2023-05-13T15:39:49.666Z,20.08
2023-05-13T15:42:17.300Z,19.91
2023-05-13T15:44:45.700Z,19.84
2023-05-13T15:47:14.392Z,19.83
2023-05-13T15:49:42.509Z,19.85
2023-05-13T15:52:10.232Z,20.04
2023-05-13T15:54:37.955Z,20.96
2023-05-13T15:57:05.820Z,21.65
2023-05-13T15:59:33.416Z,21.73
2023-05-13T16:02:01.190Z,21.61
2023-05-13T16:04:28.859Z,21.42
2023-05-13T16:06:56.537Z,21.22
2023-05-13T16:09:24.288Z,21.10
2023-05-13T16:11:51.882Z,21.11
2023-05-13T16:14:19.632Z,21.20
2023-05-13T16:16:47.279Z,21.33
2023-05-13T16:19:14.928Z,21.43
2023-05-13T16:21:42.702Z,21.55
2023-05-13T16:24:11.346Z,21.68
2023-05-13T16:26:38.973Z,21.79
2023-05-13T16:29:06.826Z,21.88
2023-05-13T16:31:36.864Z,21.97
2023-05-13T16:34:04.561Z,22.08
2023-05-13T16:36:32.151Z,22.19
2023-05-13T16:38:59.915Z,22.26
2023-05-13T16:41:27.518Z,22.29
2023-05-13T16:43:55.115Z,22.30
2023-05-13T16:46:22.802Z,22.30
2023-05-13T16:48:50.769Z,22.33
2023-05-13T16:51:18.553Z,22.37
2023-05-13T16:53:46.136Z,22.38
2023-05-13T16:56:13.835Z,22.37
2023-05-13T16:58:41.708Z,22.37
2023-05-13T17:01:09.389Z,22.36
2023-05-13T17:03:37.047Z,22.29
2023-05-13T17:06:07.163Z,22.20
2023-05-13T17:08:34.977Z,22.11
2023-05-13T17:11:03.159Z,22.00
2023-05-13T17:13:30.735Z,21.88
2023-05-13T17:15:58.523Z,21.75
2023-05-13T17:18:26.551Z,21.62
2023-05-13T17:20:54.974Z,21.50
2023-05-13T17:23:22.799Z,21.40
2023-05-13T17:25:51.073Z,21.23
2023-05-13T17:28:18.653Z,21.02
2023-05-13T17:30:46.520Z,20.73
2023-05-13T17:33:14.365Z,20.50
2023-05-13T17:35:42.091Z,20.40
2023-05-13T17:38:09.811Z,20.34
2023-05-13T17:40:37.595Z,20.30
2023-05-13T17:43:05.367Z,20.26
2023-05-13T17:45:33.329Z,20.25
2023-05-13T17:48:01.817Z,20.13
2023-05-13T17:50:32.876Z,19.97
2023-05-13T17:53:00.564Z,19.89
2023-05-13T17:55:28.279Z,19.77
2023-05-13T17:57:56.549Z,19.67
2023-05-13T18:00:25.325Z,19.56
2023-05-13T18:02:53.136Z,19.48
2023-05-13T18:05:23.889Z,19.39
2023-05-13T18:07:51.541Z,19.30
2023-05-13T18:10:19.345Z,19.19
2023-05-13T18:12:47.387Z,19.04
2023-05-13T18:15:15.213Z,18.87
2023-05-13T18:17:43.000Z,18.69
2023-05-13T18:20:11.285Z,18.44
2023-05-13T18:22:39.640Z,18.20
2023-05-13T18:25:08.045Z,18.00
2023-05-13T18:27:35.662Z,17.84
2023-05-13T18:30:03.452Z,17.63
2023-05-13T18:32:32.876Z,17.44
2023-05-13T18:35:00.679Z,17.27
2023-05-13T18:37:28.407Z,17.08
2023-05-13T18:39:57.424Z,16.95
2023-05-13T18:42:26.130Z,16.77
2023-05-13T18:44:53.788Z,16.57
2023-05-13T18:47:21.885Z,16.43
2023-05-13T18:49:49.600Z,16.33
2023-05-13T18:52:17.289Z,16.20
2023-05-13T18:54:45.006Z,16.08
2023-05-13T18:57:12.682Z,15.97
2023-05-13T18:59:40.340Z,15.83
2023-05-13T19:02:08.134Z,15.72
2023-05-13T19:04:36.173Z,15.61
2023-05-13T19:07:04.154Z,15.49
2023-05-13T19:09:33.482Z,15.41
2023-05-13T19:12:01.290Z,15.29
2023-05-13T19:14:28.850Z,15.16
2023-05-13T19:16:56.680Z,15.04
2023-05-13T19:19:24.644Z,14.95
2023-05-13T19:21:52.389Z,14.91
2023-05-13T19:24:20.003Z,14.92
2023-05-13T19:26:47.592Z,14.94
2023-05-13T19:29:15.216Z,14.96
2023-05-13T19:31:43.123Z,14.93
2023-05-13T19:34:10.895Z,14.92
2023-05-13T19:36:38.798Z,14.89
2023-05-13T19:39:06.403Z,14.85
2023-05-13T19:41:34.592Z,14.81
2023-05-13T19:44:02.369Z,14.76
2023-05-13T19:46:30.072Z,14.69
2023-05-13T19:48:57.689Z,14.62
2023-05-13T19:51:26.740Z,14.57
2023-05-13T19:53:54.352Z,14.49
2023-05-13T19:56:23.142Z,14.42
2023-05-13T19:58:50.830Z,14.33
2023-05-13T20:01:18.834Z,14.25
2023-05-13T20:03:47.002Z,14.16
2023-05-13T20:06:14.672Z,14.06
2023-05-13T20:08:42.269Z,14.00
2023-05-13T20:11:10.056Z,13.94
2023-05-13T20:13:37.696Z,13.87
2023-05-13T20:16:05.522Z,13.80
2023-05-13T20:18:34.008Z,13.75
2023-05-13T20:21:01.906Z,13.68
2023-05-13T20:23:29.677Z,13.61
2023-05-13T20:25:58.384Z,13.56
2023-05-13T20:28:25.945Z,13.53
2023-05-13T20:30:54.155Z,13.50
2023-05-13T20:33:21.838Z,13.48
2023-05-13T20:35:49.525Z,13.50
2023-05-13T20:38:17.711Z,13.47
2023-05-13T20:40:45.339Z,13.41
2023-05-13T20:43:13.238Z,13.39
2023-05-13T20:45:40.967Z,13.39
2023-05-13T20:48:09.424Z,13.35
2023-05-13T20:50:37.417Z,13.30
2023-05-13T20:53:05.116Z,13.26
2023-05-13T20:55:32.896Z,13.20
2023-05-13T20:58:00.830Z,13.16
2023-05-13T21:00:28.474Z,13.10
2023-05-13T21:02:56.582Z,13.05
2023-05-13T21:05:24.419Z,12.98
2023-05-13T21:07:52.626Z,12.94
2023-05-13T21:10:20.545Z,12.89
2023-05-13T21:12:48.270Z,12.86
2023-05-13T21:15:16.750Z,12.77
2023-05-13T21:17:44.509Z,12.70
2023-05-13T21:20:12.684Z,12.64
2023-05-13T21:22:40.415Z,12.58
2023-05-13T21:25:10.526Z,12.53
2023-05-13T21:27:38.630Z,12.50
2023-05-13T21:30:06.803Z,12.46
2023-05-13T21:32:34.534Z,12.41
2023-05-13T21:35:02.163Z,12.39
2023-05-13T21:37:30.022Z,12.33
2023-05-13T21:39:57.715Z,12.26
2023-05-13T21:42:26.999Z,12.23
2023-05-13T21:44:54.804Z,12.14
2023-05-13T21:47:22.579Z,12.10
2023-05-13T21:49:50.402Z,12.06
2023-05-13T21:52:18.492Z,12.02
2023-05-13T21:54:46.108Z,11.96
2023-05-13T21:57:13.865Z,11.87
2023-05-13T21:59:41.654Z,11.80
2023-05-13T22:02:09.654Z,11.75
2023-05-13T22:04:39.857Z,11.72
2023-05-13T22:07:08.045Z,11.72
2023-05-13T22:09:35.914Z,11.69
2023-05-13T22:12:04.080Z,11.67
2023-05-13T22:14:31.962Z,11.64
2023-05-13T22:17:08.976Z,11.64
2023-05-13T22:19:37.845Z,11.60
2023-05-13T22:22:06.057Z,11.53
2023-05-13T22:24:33.843Z,11.44
2023-05-13T22:27:01.632Z,11.36
2023-05-13T22:29:29.383Z,11.28
2023-05-13T22:32:00.206Z,11.22
2023-05-13T22:34:27.992Z,11.18
2023-05-13T22:36:55.699Z,11.12
2023-05-13T22:39:23.319Z,11.09
2023-05-13T22:41:50.941Z,11.07
2023-05-13T22:44:18.636Z,11.02
2023-05-13T22:46:46.356Z,10.97
2023-05-13T22:49:14.193Z,10.95
2023-05-13T22:51:41.909Z,10.90
2023-05-13T22:54:09.620Z,10.84
2023-05-13T22:56:37.235Z,10.83
2023-05-13T22:59:06.176Z,10.80
2023-05-13T23:01:33.901Z,10.76
2023-05-13T23:04:02.898Z,10.73
2023-05-13T23:06:30.796Z,10.68
2023-05-13T23:08:58.392Z,10.64
2023-05-13T23:11:26.013Z,10.58
2023-05-13T23:13:53.850Z,10.53
2023-05-13T23:16:21.526Z,10.52
2023-05-13T23:18:49.339Z,10.55
2023-05-13T23:21:16.932Z,10.56
2023-05-13T23:23:44.820Z,10.59
2023-05-13T23:26:13.926Z,10.63
2023-05-13T23:28:42.650Z,10.65
2023-05-13T23:31:10.400Z,10.69
2023-05-13T23:33:38.002Z,10.69
2023-05-13T23:36:06.085Z,10.70
2023-05-13T23:38:34.753Z,10.68
2023-05-13T23:41:02.521Z,10.67
2023-05-13T23:43:30.355Z,10.63
2023-05-13T23:45:58.028Z,10.60
2023-05-13T23:48:28.869Z,10.53
2023-05-13T23:50:56.484Z,10.47
2023-05-13T23:53:24.054Z,10.39
2023-05-13T23:55:51.667Z,10.33
2023-05-13T23:58:19.336Z,10.25
